Time;durP1;ratioP1;P1;durP2;ratioP2;P2;SDS_P1;SDS_P2;PMS_P1;PMS_P2;Temp;Humidity;BMP_temperature;BMP_pressure;BME280_temperature;BME280_humidity;BME280_pressure;Samples;Min_cycle;Max_cycle;Signal;HPM_P1;HPM_P2
2023/07/08 00:02:10;;;;;;;9.75;4.80;;;19.80;52.40;;;19.09;56.29;96176.00;4982340;28;20029;-69
2023/07/08 00:04:36;;;;;;;5.22;4.35;;;19.80;52.60;;;19.08;56.34;96158.41;5010220;28;20522;-70
2023/07/08 00:07:02;;;;;;;9.27;4.55;;;19.70;52.40;;;19.05;57.07;96161.56;5006955;28;20068;-70
2023/07/08 00:09:30;;;;;;;7.90;4.40;;;19.70;52.80;;;19.03;57.27;96155.66;4992833;28;20412;-69
2023/07/08 00:11:57;;;;;;;4.97;3.92;;;19.70;52.80;;;18.98;56.79;96153.69;5008619;28;20030;-69
2023/07/08 00:14:23;;;;;;;7.53;4.68;;;19.70;53.20;;;18.92;57.65;96164.50;5010083;28;20084;-69
2023/07/08 00:16:49;;;;;;;8.50;4.50;;;19.60;53.40;;;18.82;57.56;96146.50;4995087;28;20053;-69
2023/07/08 00:19:19;;;;;;;5.57;4.45;;;19.50;53.70;;;18.79;58.20;96165.63;4991965;28;20032;-70
2023/07/08 00:21:45;;;;;;;7.07;4.50;;;19.50;53.90;;;18.77;57.71;96159.69;4990072;28;20034;-70
2023/07/08 00:24:12;;;;;;;5.68;4.32;;;19.50;54.40;;;18.74;58.88;96162.03;5010007;28;20522;-68
2023/07/08 00:26:37;;;;;;;6.13;4.38;;;19.40;54.40;;;18.71;58.62;96163.31;4996716;28;20068;-68
2023/07/08 00:29:08;;;;;;;7.03;4.53;;;19.50;54.30;;;18.69;58.11;96160.09;4992345;28;20098;-69
2023/07/08 00:31:34;;;;;;;;;;;19.40;54.20;;;18.66;59.42;96166.72;4994050;28;20557;-68
2023/07/08 00:34:03;;;;;;;9.43;4.85;;;19.50;54.00;;;18.68;57.86;96158.47;4997690;28;19917;-68
2023/07/08 00:36:29;;;;;;;6.38;4.50;;;19.50;54.40;;;18.68;58.12;96163.81;4992358;28;20030;-68
2023/07/08 00:38:54;;;;;;;6.15;4.30;;;19.50;54.60;;;18.69;58.49;96164.63;4990268;28;20084;-69
2023/07/08 00:41:25;;;;;;;8.45;4.72;;;19.50;54.10;;;18.64;59.32;96166.16;5003480;28;20033;-68
2023/07/08 00:43:54;;;;;;;7.10;4.70;;;19.50;54.50;;;18.61;59.25;96165.78;4989033;28;20042;-69
2023/07/08 00:46:31;;;;;;;7.78;4.47;;;19.30;54.80;;;18.59;59.99;96170.53;5010117;28;20030;-69
2023/07/08 00:49:10;;;;;;;7.60;4.88;;;19.30;54.90;;;18.56;61.21;96171.03;5009459;28;20038;-69
2023/07/08 00:51:38;;;;;;;9.00;4.40;;;19.20;54.90;;;18.49;60.82;96160.47;4980463;28;20133;-69
2023/07/08 00:54:14;;;;;;;6.50;4.60;;;19.10;55.60;;;18.45;61.76;96169.19;5008568;28;20128;-69
2023/07/08 00:56:59;;;;;;;7.72;4.18;;;19.20;55.50;;;18.40;61.62;96171.75;5004848;28;20030;-69
2023/07/08 00:59:38;;;;;;;7.75;4.70;;;19.10;55.50;;;18.32;62.18;96171.06;5008052;28;20030;-68
2023/07/08 01:02:06;;;;;;;7.32;4.80;;;19.10;55.80;;;18.31;61.35;96163.31;4964135;28;20409;-68
2023/07/08 01:04:48;;;;;;;6.72;4.55;;;19.00;56.10;;;18.26;62.30;96172.00;4997606;28;20057;-68
2023/07/08 01:07:21;;;;;;;6.57;4.35;;;19.00;56.10;;;18.22;61.57;96160.22;4998140;28;20097;-67
2023/07/08 01:09:48;;;;;;;8.32;4.32;;;19.00;56.00;;;18.20;61.03;96167.63;4977950;28;20034;-69
2023/07/08 01:12:23;;;;;;;6.63;4.40;;;18.90;56.20;;;18.16;62.90;96171.81;4980515;28;20124;-68
2023/07/08 01:14:49;;;;;;;9.30;4.65;;;18.90;56.10;;;18.10;61.42;96167.41;4976547;28;20069;-68
2023/07/08 01:17:15;;;;;;;7.28;4.53;;;18.80;56.40;;;18.05;62.11;96148.69;4964388;28;20058;-69
2023/07/08 01:19:42;;;;;;;6.75;4.72;;;18.80;56.50;;;18.05;62.47;96159.31;4990907;28;20022;-68
2023/07/08 01:22:07;;;;;;;4.78;3.90;;;18.80;56.80;;;18.06;62.24;96160.94;4991536;28;20058;-69
2023/07/08 01:24:38;;;;;;;6.28;4.38;;;18.90;56.40;;;18.06;63.48;96161.75;5008821;28;20049;-69
2023/07/08 01:27:06;;;;;;;6.18;5.00;;;18.90;56.50;;;18.09;61.73;96159.66;4979955;28;20472;-68
2023/07/08 01:29:32;;;;;;;5.88;4.10;;;19.00;56.40;;;18.12;62.58;96159.22;4963024;28;20261;-68
2023/07/08 01:31:58;;;;;;;7.43;4.80;;;18.90;56.00;;;18.14;62.05;96157.94;4984409;28;20603;-69
2023/07/08 01:34:24;;;;;;;5.95;4.35;;;19.00;55.40;;;18.17;60.79;96157.47;4965589;28;20490;-68
2023/07/08 01:36:55;;;;;;;5.43;4.25;;;19.10;54.90;;;18.21;62.39;96166.59;4970367;28;20141;-69
2023/07/08 01:39:22;;;;;;;5.80;4.38;;;19.10;55.00;;;18.24;60.59;96171.44;4970076;28;20030;-69
2023/07/08 01:41:47;;;;;;;7.07;4.97;;;19.10;55.00;;;18.21;60.81;96169.25;4977425;28;20034;-69
2023/07/08 01:44:30;;;;;;;9.13;4.95;;;19.10;55.30;;;18.22;62.47;96178.84;5001742;28;20029;-69
2023/07/08 01:47:26;;;;;;;8.30;4.78;;;19.10;55.60;;;18.24;62.35;96179.44;4976142;28;20132;-69
2023/07/08 01:49:51;;;;;;;8.82;4.78;;;19.10;56.00;;;18.20;62.22;96178.28;4993175;28;20111;-69
2023/07/08 01:52:17;;;;;;;8.13;4.68;;;19.10;56.20;;;18.18;62.05;96185.69;4977957;28;20506;-69
2023/07/08 01:54:43;;;;;;;7.05;4.75;;;19.00;56.60;;;18.15;62.20;96180.84;4992022;28;20158;-69
2023/07/08 01:57:09;;;;;;;6.25;4.43;;;19.00;56.80;;;18.12;63.49;96177.84;4976864;28;20505;-69
2023/07/08 01:59:34;;;;;;;7.95;5.25;;;19.00;56.80;;;18.07;62.50;96173.22;4985461;28;20033;-69
2023/07/08 02:02:00;;;;;;;8.80;4.68;;;18.90;56.80;;;18.02;62.89;96167.78;5011369;28;20030;-70
2023/07/08 02:04:28;;;;;;;8.05;4.80;;;18.90;57.00;;;18.01;62.90;96174.97;4957693;28;20037;-70
2023/07/08 02:06:55;;;;;;;7.72;4.90;;;18.80;57.40;;;17.98;63.38;96163.97;5010845;28;20061;-69
2023/07/08 02:09:20;;;;;;;6.50;4.70;;;18.80;57.40;;;17.93;63.61;96161.22;4981843;28;20030;-70
2023/07/08 02:11:46;;;;;;;7.88;4.90;;;18.80;57.40;;;17.92;64.11;96159.59;4992932;28;20030;-69
2023/07/08 02:14:12;;;;;;;11.68;4.88;;;18.70;58.00;;;17.89;64.29;96157.41;5009213;28;20026;-69
2023/07/08 02:16:37;;;;;;;6.70;4.63;;;18.70;58.50;;;17.86;64.82;96155.19;5011331;28;20104;-69
2023/07/08 02:19:03;;;;;;;6.25;4.50;;;18.70;57.80;;;17.85;64.14;96158.88;5007868;28;20072;-69
2023/07/08 02:21:30;;;;;;;9.35;4.72;;;18.70;57.70;;;17.84;64.54;96165.25;5007553;28;20034;-69
2023/07/08 02:23:56;;;;;;;6.25;4.93;;;18.70;57.50;;;17.79;64.38;96163.28;5009842;28;20060;-68
2023/07/08 02:26:22;;;;;;;7.82;5.25;;;18.70;57.70;;;17.77;64.64;96157.41;4998289;28;20524;-69
2023/07/08 02:28:48;;;;;;;7.50;4.45;;;18.70;58.10;;;17.77;65.11;96153.94;4967110;28;20038;-69
2023/07/08 02:31:13;;;;;;;7.22;4.63;;;18.60;57.90;;;17.77;64.98;96157.41;4967359;28;20043;-69
2023/07/08 02:33:39;;;;;;;7.25;4.72;;;18.60;58.20;;;17.77;65.31;96152.06;4992419;28;20056;-68
2023/07/08 02:36:05;;;;;;;9.40;5.53;;;18.60;58.10;;;17.74;65.39;96150.69;4997242;28;20037;-69
2023/07/08 02:38:31;;;;;;;7.25;4.72;;;18.60;57.90;;;17.74;65.25;96157.88;4963950;28;20153;-69
2023/07/08 02:40:57;;;;;;;7.63;4.40;;;18.60;58.40;;;17.77;65.90;96157.41;4992028;28;20409;-69
2023/07/08 02:43:23;;;;;;;7.72;4.93;;;18.60;58.30;;;17.75;65.04;96159.47;5004765;28;20025;-69
2023/07/08 02:45:51;;;;;;;7.50;4.97;;;18.60;58.20;;;17.74;65.62;96153.34;5006391;28;20044;-70
2023/07/08 02:48:18;;;;;;;7.32;4.97;;;18.70;57.80;;;17.73;65.18;96157.06;4994802;28;20081;-70
2023/07/08 02:50:44;;;;;;;7.75;4.88;;;18.60;57.90;;;17.72;65.51;96160.75;5010604;28;20117;-69
2023/07/08 02:53:10;;;;;;;5.82;4.57;;;18.60;58.40;;;17.71;65.49;96151.16;5010363;28;20030;-69
2023/07/08 02:55:35;;;;;;;7.28;4.68;;;18.60;58.60;;;17.69;65.53;96150.59;4989576;28;20041;-69
2023/07/08 02:58:01;;;;;;;5.97;4.63;;;18.60;58.70;;;17.68;66.57;96158.81;4991756;28;20022;-70
2023/07/08 03:00:27;;;;;;;7.20;5.18;;;18.60;58.90;;;17.64;66.53;96158.41;4967023;28;20133;-70
2023/07/08 03:02:52;;;;;;;17.00;12.05;;;18.50;59.10;;;17.60;66.70;96162.56;4992804;28;20034;-70
2023/07/08 03:05:18;;;;;;;14.88;11.75;;;18.50;59.40;;;17.56;66.95;96150.78;4982562;28;20026;-69
2023/07/08 03:07:44;;;;;;;15.18;12.88;;;18.40;59.50;;;17.55;66.75;96154.47;5009141;28;20499;-69
2023/07/08 03:10:10;;;;;;;10.75;7.63;;;18.40;59.30;;;17.54;66.88;96162.69;5009320;28;20030;-69
2023/07/08 03:12:35;;;;;;;8.45;6.45;;;18.40;59.40;;;17.49;67.15;96152.75;4993156;28;20072;-69
2023/07/08 03:15:01;;;;;;;10.27;7.65;;;18.40;59.50;;;17.49;67.42;96149.28;4992428;28;20030;-69
2023/07/08 03:17:27;;;;;;;9.65;7.43;;;18.40;59.50;;;17.51;67.24;96157.84;4962531;28;20102;-68
2023/07/08 03:19:53;;;;;;;8.55;5.95;;;18.40;59.60;;;17.48;67.67;96159.09;5007542;28;20173;-69
2023/07/08 03:22:18;;;;;;;8.35;5.25;;;18.30;59.50;;;17.47;67.08;96165.47;4981374;28;20065;-69
2023/07/08 03:24:47;;;;;;;11.07;5.50;;;18.40;59.50;;;17.47;67.23;96168.13;4991182;28;20030;-69
2023/07/08 03:27:14;;;;;;;9.82;5.10;;;18.40;59.70;;;17.47;68.19;96167.31;4976865;28;20042;-69
2023/07/08 03:29:40;;;;;;;6.80;4.90;;;18.40;59.90;;;17.45;68.19;96164.91;4977493;28;20032;-68
2023/07/08 03:32:08;;;;;;;7.63;5.20;;;18.40;59.90;;;17.47;67.81;96162.81;5004491;28;20026;-68
2023/07/08 03:34:34;;;;;;;10.07;8.05;;;18.40;59.70;;;17.43;68.22;96156.34;4957662;28;20417;-69
2023/07/08 03:37:00;;;;;;;10.80;8.45;;;18.40;59.70;;;17.44;68.67;96164.09;4989975;28;20030;-68
2023/07/08 03:39:25;;;;;;;8.57;6.53;;;18.30;60.00;;;17.42;68.24;96160.00;5001237;28;20056;-69
2023/07/08 03:41:51;;;;;;;9.43;6.10;;;18.40;60.10;;;17.45;68.82;96164.91;4988707;28;20042;-66
2023/07/08 03:44:17;;;;;;;10.60;7.32;;;18.40;60.30;;;17.42;68.73;96165.31;4997510;28;20041;-67
2023/07/08 03:46:49;;;;;;;10.20;7.82;;;18.40;60.70;;;17.41;70.06;96161.03;4995728;28;20034;-66
2023/07/08 03:49:15;;;;;;;10.32;6.00;;;18.40;60.90;;;17.40;70.14;96157.59;5004800;28;20046;-68
2023/07/08 03:51:41;;;;;;;7.60;5.05;;;18.40;61.00;;;17.42;69.63;96154.69;4972437;28;20053;-67
2023/07/08 03:54:10;;;;;;;7.35;5.03;;;18.40;61.30;;;17.39;71.39;96155.16;4985882;28;20042;-71
2023/07/08 03:56:35;;;;;;;10.07;5.10;;;18.40;61.70;;;17.40;70.88;96148.78;5006667;28;20033;-70
2023/07/08 03:59:01;;;;;;;7.28;4.80;;;18.40;62.00;;;17.41;71.01;96153.88;4985233;28;20065;-70
2023/07/08 04:01:27;;;;;;;6.72;4.85;;;18.40;61.90;;;17.44;70.91;96149.97;4975861;28;20061;-69
2023/07/08 04:03:54;;;;;;;8.50;4.93;;;18.50;61.60;;;17.44;70.43;96152.63;4971270;28;20137;-72
2023/07/08 04:06:20;;;;;;;5.28;4.53;;;18.50;61.10;;;17.47;70.73;96148.72;4961516;28;20088;-70
2023/07/08 04:08:46;;;;;;;7.15;5.90;;;18.50;60.60;;;17.48;70.57;96147.66;4970974;28;20699;-71
2023/07/08 04:11:17;;;;;;;14.20;11.65;;;18.60;60.30;;;17.50;70.90;96162.34;4972502;28;20030;-70
2023/07/08 04:13:43;;;;;;;11.32;8.27;;;18.60;60.30;;;17.54;69.83;96157.38;4973138;28;20033;-70
2023/07/08 04:16:18;;;;;;;14.90;10.75;;;18.60;60.00;;;17.57;70.45;96160.38;5007201;28;20048;-70
2023/07/08 04:18:44;;;;;;;20.52;15.38;;;18.60;60.00;;;17.60;69.57;96162.56;4990797;28;20030;-69
2023/07/08 04:21:10;;;;;;;14.32;10.27;;;18.70;59.80;;;17.63;70.31;96172.75;4987561;28;20536;-69
2023/07/08 04:23:35;;;;;;;12.20;7.95;;;18.70;59.90;;;17.65;70.49;96176.00;4973219;28;20034;-70
2023/07/08 04:26:01;;;;;;;12.35;9.25;;;18.80;60.20;;;17.65;70.00;96169.84;4956105;28;20100;-68
2023/07/08 04:28:27;;;;;;;10.77;5.85;;;18.80;60.20;;;17.70;69.42;96172.69;4974679;28;20519;-69
2023/07/08 04:30:53;;;;;;;29.50;20.42;;;18.80;59.50;;;17.75;69.24;96170.94;4991135;28;20525;-69
2023/07/08 04:33:18;;;;;;;12.45;9.90;;;18.90;59.30;;;17.81;69.01;96169.19;4988917;28;20092;-70
2023/07/08 04:35:44;;;;;;;11.05;8.65;;;19.00;59.30;;;17.88;68.93;96167.22;4959845;28;20169;-67
2023/07/08 04:38:21;;;;;;;9.38;6.13;;;19.10;58.90;;;17.94;70.22;96168.97;4979922;28;20081;-73
2023/07/08 04:40:51;;;;;;;7.78;5.10;;;19.10;58.90;;;17.99;69.07;96176.22;4973052;28;20117;-73
2023/07/08 04:43:17;;;;;;;7.50;5.07;;;19.20;58.40;;;18.04;68.88;96179.81;4991280;28;20112;-73
2023/07/08 04:45:45;;;;;;;7.53;4.95;;;19.20;58.40;;;18.09;68.73;96173.78;4973804;28;20056;-73
2023/07/08 04:48:14;;;;;;;8.27;5.07;;;19.30;58.70;;;18.17;69.01;96188.59;4974183;28;20058;-73
2023/07/08 04:50:45;;;;;;;10.43;4.95;;;19.40;59.00;;;18.21;69.25;96198.53;4955539;28;20029;-73
2023/07/08 04:53:11;;;;;;;9.98;5.03;;;19.40;59.40;;;18.24;69.38;96203.41;4991900;28;20517;-73
2023/07/08 04:55:39;;;;;;;9.57;4.80;;;19.40;59.90;;;18.26;70.64;96213.81;4979859;28;20053;-74
2023/07/08 04:58:06;;;;;;;7.72;5.10;;;19.50;60.10;;;18.29;71.16;96224.81;4985564;28;20030;-74
2023/07/08 05:00:32;;;;;;;7.63;4.97;;;19.50;60.10;;;18.34;71.04;96227.59;4989153;28;20030;-73
2023/07/08 05:02:58;;;;;;;8.00;4.75;;;19.60;59.80;;;18.38;69.77;96224.47;4990736;28;20045;-73
2023/07/08 05:05:24;;;;;;;8.00;4.75;;;19.60;59.60;;;18.39;69.44;96228.75;4982619;28;20517;-73
2023/07/08 05:07:49;;;;;;;6.78;4.93;;;19.60;58.90;;;18.43;69.47;96237.88;4959583;28;20548;-73
2023/07/08 05:10:15;;;;;;;7.50;4.97;;;19.70;59.10;;;18.48;69.68;96233.44;5006556;28;20033;-73
2023/07/08 05:12:42;;;;;;;8.95;5.13;;;19.70;58.90;;;18.50;68.67;96231.34;4994951;28;20573;-73
2023/07/08 05:15:08;;;;;;;5.88;4.60;;;19.70;58.50;;;18.53;69.16;96235.41;4994797;28;20032;-73
2023/07/08 05:17:34;;;;;;;7.68;4.68;;;19.80;58.80;;;18.62;69.17;96236.66;4994942;28;20402;-72
2023/07/08 05:20:00;;;;;;;5.97;4.97;;;19.90;58.80;;;18.66;69.25;96246.66;4985228;28;20092;-72
2023/07/08 05:22:29;;;;;;;8.73;5.20;;;20.00;58.00;;;18.71;69.50;96243.28;4969939;28;20562;-72
2023/07/08 05:24:55;;;;;;;7.88;4.63;;;20.10;58.00;;;18.75;69.30;96241.75;4968106;28;20037;-73
2023/07/08 05:27:22;;;;;;;5.93;4.38;;;20.10;58.50;;;18.81;69.46;96238.16;5000679;28;20030;-73
2023/07/08 05:29:49;;;;;;;7.22;5.18;;;20.20;57.90;;;18.85;68.07;96228.63;4983098;28;20036;-75
2023/07/08 05:32:14;;;;;;;7.80;4.68;;;20.10;57.00;;;18.89;68.83;96232.44;4990305;28;20030;-73
2023/07/08 05:34:40;;;;;;;9.15;4.97;;;20.20;57.10;;;18.93;68.45;96224.75;4998526;28;20084;-73
2023/07/08 05:37:06;;;;;;;7.88;5.28;;;20.30;57.50;;;18.94;67.61;96221.88;5011717;28;20026;-73
2023/07/08 05:39:32;;;;;;;8.50;5.20;;;20.30;57.10;;;18.96;68.40;96230.44;4966632;28;20049;-72
2023/07/08 05:41:58;;;;;;;6.90;4.68;;;20.30;56.80;;;19.04;66.99;96225.78;4994996;28;20049;-73
2023/07/08 05:44:23;;;;;;;13.88;10.68;;;20.40;56.50;;;19.07;67.53;96219.97;5010105;28;20032;-74
2023/07/08 05:46:49;;;;;;;14.38;10.32;;;20.50;56.70;;;19.09;67.89;96217.88;4978678;28;20072;-73
2023/07/08 05:49:15;;;;;;;10.68;8.98;;;20.50;57.30;;;19.14;68.33;96218.75;4997552;28;20045;-74
2023/07/08 05:51:42;;;;;;;7.55;5.15;;;20.60;57.70;;;19.23;67.86;96222.63;4984067;28;20027;-73
2023/07/08 05:54:08;;;;;;;9.10;4.97;;;20.70;56.80;;;19.33;68.49;96223.88;5010414;28;20432;-74
2023/07/08 05:56:34;;;;;;;7.68;5.15;;;20.90;56.60;;;19.42;66.55;96228.56;4969416;28;20054;-74
2023/07/08 05:58:59;;;;;;;9.77;5.50;;;21.00;55.70;;;19.51;67.71;96221.81;4984277;28;20038;-73
2023/07/08 06:01:25;;;;;;;9.18;6.85;;;21.10;55.90;;;19.62;67.53;96205.97;4986223;28;20061;-73
2023/07/08 06:03:52;;;;;;;7.30;5.18;;;21.30;55.40;;;19.73;67.44;96205.09;4981096;28;20076;-73
2023/07/08 06:06:18;;;;;;;7.13;5.30;;;21.40;55.50;;;19.85;67.34;96211.13;4992497;28;20093;-74
2023/07/08 06:08:43;;;;;;;5.93;4.55;;;21.60;55.70;;;19.93;66.11;96213.41;5013020;28;20129;-74
2023/07/08 06:11:09;;;;;;;7.07;5.10;;;21.50;55.20;;;20.01;66.78;96207.66;5011466;28;20042;-73
2023/07/08 06:13:35;;;;;;;7.00;5.00;;;21.60;55.60;;;20.10;67.03;96192.00;4985977;28;20038;-74
2023/07/08 06:16:00;;;;;;;7.93;5.00;;;21.70;55.90;;;20.20;67.10;96197.50;4977155;28;20062;-73
2023/07/08 06:18:26;;;;;;;7.93;5.05;;;21.90;56.20;;;20.36;67.51;96198.47;4985448;28;20125;-73
2023/07/08 06:20:56;;;;;;;6.05;4.93;;;22.10;55.50;;;20.51;67.63;96193.34;4982724;28;20037;-73
2023/07/08 06:23:23;;;;;;;6.45;4.90;;;22.40;55.00;;;20.70;66.80;96200.00;4984812;28;20079;-73
2023/07/08 06:25:48;;;;;;;6.85;4.72;;;22.70;54.40;;;20.92;66.01;96199.97;4990533;28;20041;-73
2023/07/08 06:28:14;;;;;;;6.43;4.82;;;22.90;53.10;;;21.10;65.71;96191.59;5009978;28;20057;-73
2023/07/08 06:30:40;;;;;;;7.30;5.18;;;23.20;51.90;;;21.35;64.06;96187.56;4998152;28;20026;-74
2023/07/08 06:33:06;;;;;;;10.98;4.75;;;23.50;50.70;;;21.56;62.86;96175.19;4976921;28;20109;-71
2023/07/08 06:35:31;;;;;;;8.75;4.78;;;23.80;49.60;;;21.79;62.78;96179.34;4995807;28;20521;-72
2023/07/08 06:37:57;;;;;;;6.88;4.82;;;24.10;49.80;;;21.97;62.20;96173.59;5008074;28;20532;-71
2023/07/08 06:40:23;;;;;;;7.90;4.75;;;24.20;49.30;;;22.17;61.14;96176.38;4960399;28;20030;-71
2023/07/08 06:42:49;;;;;;;5.88;4.78;;;24.40;48.50;;;22.36;60.65;96176.75;4975359;28;20425;-69
2023/07/08 06:45:15;;;;;;;10.35;5.38;;;24.60;47.80;;;22.51;59.15;96174.13;4993496;28;20129;-70
2023/07/08 06:47:40;;;;;;;6.43;4.80;;;24.60;46.40;;;22.66;57.69;96177.94;5003831;28;20034;-74
2023/07/08 06:50:07;;;;;;;6.28;4.90;;;24.90;45.80;;;22.81;57.67;96173.44;4968526;28;20518;-72
2023/07/08 06:52:35;;;;;;;6.97;4.70;;;25.10;45.90;;;23.00;56.31;96179.13;4966195;28;20161;-69
2023/07/08 06:55:01;;;;;;;9.43;5.53;;;25.30;44.90;;;23.12;56.24;96179.69;4973506;28;20520;-71
2023/07/08 06:57:27;;;;;;;14.32;12.25;;;25.30;44.90;;;23.26;55.72;96179.16;4988566;28;20625;-70
2023/07/08 06:59:53;;;;;;;11.68;8.15;;;25.40;45.70;;;23.34;54.54;96178.66;4986048;28;20116;-68
2023/07/08 07:02:19;;;;;;;11.23;6.03;;;25.40;44.20;;;23.40;54.70;96180.25;4973310;28;20509;-65
2023/07/08 07:04:45;;;;;;;9.02;5.30;;;25.50;44.90;;;23.55;54.80;96177.59;5000202;28;20044;-65
2023/07/08 07:07:11;;;;;;;9.77;5.95;;;25.80;44.70;;;23.66;54.61;96181.88;4986774;28;20029;-66
2023/07/08 07:09:37;;;;;;;13.93;8.77;;;26.00;44.40;;;23.71;53.93;96189.94;5004560;28;20088;-66
2023/07/08 07:12:05;;;;;;;10.18;5.85;;;25.80;44.20;;;23.79;53.01;96178.66;4984087;28;20026;-67
2023/07/08 07:14:31;;;;;;;9.68;5.90;;;25.90;43.60;;;23.79;53.37;96188.59;4975310;28;20046;-66
2023/07/08 07:16:57;;;;;;;8.30;5.72;;;25.80;44.70;;;23.86;53.86;96207.94;4990909;28;20433;-67
2023/07/08 07:19:23;;;;;;;9.35;6.13;;;25.90;44.90;;;23.91;53.68;96215.19;5005221;28;20186;-68
2023/07/08 07:21:48;;;;;;;7.65;6.50;;;25.80;45.40;;;23.93;54.15;96216.50;4999840;28;20076;-68
2023/07/08 07:24:14;;;;;;;8.48;5.22;;;25.80;45.30;;;23.95;52.89;96203.59;5007133;28;20033;-70
2023/07/08 07:26:40;;;;;;;8.73;5.47;;;25.70;44.40;;;23.96;52.91;96199.03;4991336;28;20065;-68
2023/07/08 07:29:06;;;;;;;10.60;5.88;;;25.80;45.00;;;23.98;54.04;96207.63;5004157;28;20072;-67
2023/07/08 07:31:32;;;;;;;8.82;5.70;;;25.90;45.80;;;24.02;53.64;96197.97;4986684;28;20037;-66
2023/07/08 07:33:59;;;;;;;7.78;5.93;;;26.00;44.90;;;24.10;53.68;96192.03;4974080;28;20063;-68
2023/07/08 07:36:25;;;;;;;8.30;5.13;;;26.30;44.70;;;24.25;53.61;96201.97;4988357;28;20179;-69
2023/07/08 07:38:50;;;;;;;9.00;7.93;;;26.50;44.00;;;24.39;53.26;96198.44;5009951;28;20042;-72
2023/07/08 07:41:16;;;;;;;13.48;9.32;;;26.70;44.60;;;24.50;52.89;96193.03;5009345;28;20061;-72
2023/07/08 07:43:42;;;;;;;8.48;5.57;;;26.70;43.30;;;24.60;52.18;96201.84;4965517;28;20040;-71
2023/07/08 07:46:10;;;;;;;9.05;5.43;;;26.80;43.00;;;24.70;52.14;96201.03;4993129;28;20790;-72
2023/07/08 07:48:36;;;;;;;9.50;6.18;;;26.90;43.50;;;24.79;51.56;96190.47;4983396;28;20152;-72
2023/07/08 07:51:02;;;;;;;9.95;6.13;;;27.10;42.20;;;24.89;51.51;96201.19;5008155;28;20138;-73
2023/07/08 07:53:27;;;;;;;8.77;5.88;;;27.10;43.00;;;25.00;51.59;96197.41;4991976;28;20041;-71
2023/07/08 07:56:00;;;;;;;8.13;5.68;;;27.30;42.70;;;25.12;50.39;96187.09;5008122;28;20030;-73
2023/07/08 07:58:26;;;;;;;8.25;5.82;;;27.40;42.40;;;25.22;51.00;96205.06;5014492;28;20038;-72
2023/07/08 08:00:52;;;;;;;8.70;5.13;;;27.50;42.40;;;25.31;50.68;96206.88;4976418;28;20038;-73
2023/07/08 08:03:18;;;;;;;8.57;5.50;;;27.50;42.40;;;25.35;49.84;96199.06;4992398;28;20070;-72
2023/07/08 08:05:44;;;;;;;8.18;5.75;;;27.50;40.80;;;25.39;48.86;96215.47;4969341;28;20040;-72
2023/07/08 08:11:51;;;;;;;7.65;5.20;;;27.30;40.80;;;25.40;48.05;96228.66;5009203;28;20081;-67
2023/07/08 08:14:18;;;;;;;9.20;5.53;;;27.20;40.90;;;25.38;48.37;96230.03;4994494;28;20371;-69
2023/07/08 08:16:44;;;;;;;7.47;5.75;;;27.10;42.30;;;25.36;48.79;96230.31;4975922;28;20409;-69
2023/07/08 08:19:09;;;;;;;10.52;7.60;;;27.10;42.00;;;25.37;48.30;96239.19;4972496;28;20064;-68
2023/07/08 08:21:35;;;;;;;8.55;6.30;;;27.10;41.90;;;25.36;49.33;96249.16;4957907;28;20125;-67
2023/07/08 08:24:01;;;;;;;10.55;7.00;;;27.10;43.20;;;25.32;49.21;96253.47;4957364;28;20065;-67
2023/07/08 08:26:27;;;;;;;11.27;5.57;;;27.00;43.10;;;25.30;48.93;96267.19;4987671;28;20208;-67
2023/07/08 08:28:53;;;;;;;11.10;6.13;;;26.90;42.80;;;25.26;48.46;96259.97;4989056;28;20042;-68
2023/07/08 08:31:18;;;;;;;10.18;6.00;;;26.70;42.20;;;25.19;48.47;96243.31;4989540;28;20053;-70
2023/07/08 08:33:45;;;;;;;7.65;5.68;;;26.70;42.80;;;25.15;48.92;96258.44;4990505;28;20057;-68
2023/07/08 08:36:11;;;;;;;8.77;5.80;;;26.80;43.10;;;25.14;48.79;96267.59;4987511;28;20031;-69
2023/07/08 08:38:38;;;;;;;7.13;5.60;;;26.80;43.00;;;25.14;49.00;96262.19;5004814;28;20754;-69
2023/07/08 08:41:16;;;;;;;7.43;5.72;;;26.70;43.10;;;25.16;48.29;96255.47;4988130;28;20041;-70
2023/07/08 08:43:42;;;;;;;7.03;5.35;;;26.90;42.60;;;25.15;48.86;96263.81;4975925;28;20072;-68
2023/07/08 08:46:32;;;;;;;10.02;6.10;;;26.90;42.50;;;25.21;48.98;96268.06;4987124;28;20120;-69
2023/07/08 08:49:01;;;;;;;;;;;27.00;43.10;;;25.19;48.61;96257.59;4980721;28;20046;-71
2023/07/08 08:51:27;;;;;;;11.02;5.30;;;26.90;42.60;;;25.24;49.35;96262.13;4996646;28;20343;-67
2023/07/08 08:53:56;;;;;;;14.27;10.40;;;27.10;43.10;;;25.35;49.41;96269.09;4984385;28;20049;-68
2023/07/08 08:56:31;;;;;;;12.57;8.93;;;27.50;42.20;;;25.50;48.45;96257.38;4973091;28;20041;-69
2023/07/08 08:59:43;;;;;;;9.15;7.03;;;27.70;41.30;;;25.69;48.46;96263.75;4953411;28;20098;-69
2023/07/08 09:02:26;;;;;;;8.93;5.75;;;27.70;41.90;;;25.79;48.65;96252.09;4944956;28;20085;-68
2023/07/08 09:04:52;;;;;;;11.45;5.97;;;27.70;42.30;;;25.84;49.60;96270.94;4996873;28;20069;-70
2023/07/08 09:07:20;;;;;;;12.30;6.32;;;27.80;42.80;;;25.89;49.51;96279.78;4986427;28;20129;-70
2023/07/08 09:10:02;;;;;;;9.02;6.78;;;27.80;43.20;;;25.97;48.57;96267.56;4971136;28;20132;-71
2023/07/08 09:12:28;;;;;;;11.05;7.10;;;27.80;42.00;;;25.96;48.97;96274.06;4971511;28;20041;-70
2023/07/08 09:14:54;;;;;;;12.93;7.63;;;27.70;42.40;;;26.00;48.99;96274.28;4973385;28;20037;-70
2023/07/08 09:17:27;;;;;;;9.70;6.88;;;27.90;42.40;;;26.07;48.39;96275.59;4971118;28;20037;-70
2023/07/08 09:20:28;;;;;;;15.50;6.93;;;28.00;42.20;;;26.21;48.73;96276.50;4980880;28;20038;-69
2023/07/08 09:23:23;;;;;;;11.32;7.40;;;28.40;41.90;;;26.41;48.39;96280.16;4992352;28;20105;-69
2023/07/08 09:26:04;;;;;;;21.00;16.60;;;28.70;41.40;;;26.63;48.26;96272.34;4970095;28;20041;-69
2023/07/08 09:28:42;;;;;;;10.75;7.40;;;29.10;41.00;;;26.86;47.31;96273.44;4973462;28;20109;-69
2023/07/08 09:31:10;;;;;;;8.38;6.30;;;29.30;40.30;;;27.04;48.23;96272.72;4990186;28;20072;-70
2023/07/08 09:33:39;;;;;;;7.28;5.90;;;29.60;40.10;;;27.27;47.72;96276.47;4970929;28;20101;-69
2023/07/08 09:36:19;;;;;;;8.85;5.50;;;29.80;40.20;;;27.53;47.27;96268.00;4985838;28;20050;-69
2023/07/08 09:38:48;;;;;;;8.68;6.18;;;30.20;39.60;;;27.74;45.84;96264.72;4982108;28;20033;-69
2023/07/08 09:41:14;;;;;;;9.27;6.30;;;30.40;38.00;;;27.89;45.36;96257.47;4956020;28;20077;-71
2023/07/08 09:43:39;;;;;;;11.77;6.82;;;30.40;37.50;;;27.99;44.66;96255.41;4986184;28;20077;-73
2023/07/08 09:46:05;;;;;;;11.40;6.95;;;30.40;37.00;;;28.06;44.17;96244.19;4972749;28;20136;-71
2023/07/08 09:48:35;;;;;;;10.77;6.55;;;30.40;36.40;;;28.08;42.91;96230.41;4971663;28;20103;-71
2023/07/08 09:51:01;;;;;;;10.82;7.03;;;30.30;37.20;;;28.09;43.79;96235.50;4969666;28;20034;-69
2023/07/08 09:53:28;;;;;;;8.80;6.50;;;30.10;37.10;;;28.00;43.06;96223.75;5003101;28;20536;-70
2023/07/08 09:55:56;;;;;;;7.90;5.85;;;29.90;37.60;;;27.92;43.81;96232.56;4958278;28;20034;-71
2023/07/08 09:58:48;;;;;;;8.63;6.10;;;29.80;38.30;;;27.92;42.87;96235.25;4957212;28;20080;-69
2023/07/08 10:01:25;;;;;;;9.50;6.35;;;29.70;38.30;;;27.88;43.98;96226.94;5008847;28;20041;-70
2023/07/08 10:03:51;;;;;;;7.38;6.00;;;29.80;38.80;;;27.93;44.23;96234.16;4965898;28;20532;-70
2023/07/08 10:06:26;;;;;;;9.35;5.95;;;29.90;38.50;;;27.96;44.73;96228.16;4945764;28;20624;-71
2023/07/08 10:08:54;;;;;;;10.23;5.88;;;30.00;39.10;;;28.05;45.09;96231.78;4963169;28;20035;-70
2023/07/08 10:11:26;;;;;;;8.88;6.43;;;30.20;39.60;;;28.21;43.88;96229.59;4958025;28;20072;-71
2023/07/08 10:13:54;;;;;;;8.02;5.93;;;30.50;38.70;;;28.40;44.26;96243.91;4964831;28;20084;-70
2023/07/08 10:16:28;;;;;;;8.00;5.80;;;30.80;38.40;;;28.64;45.02;96247.22;4975388;28;20069;-70
2023/07/08 10:18:53;;;;;;;9.88;6.25;;;31.40;38.00;;;28.91;43.51;96240.22;4982058;28;20045;-70
2023/07/08 10:21:38;;;;;;;8.80;5.95;;;31.80;36.20;;;29.27;42.24;96226.72;4985708;28;20042;-70
2023/07/08 10:24:37;;;;;;;9.73;6.28;;;32.50;35.50;;;29.80;41.62;96231.47;4975926;28;20034;-71
2023/07/08 10:27:25;;;;;;;10.02;5.90;;;33.30;34.20;;;30.27;41.54;96234.66;5005360;28;20038;-69